MSC Rania — 3EEB3 — position and weather

sailwx.info

Track history (hours):
 
Tides and Currents Weather Stations Pressure Air Temp Water Temp Dewpoint Dewpoint Depression Visibility Wind Speed Wind Dir Waves Ship Positions

MSC Rania

Last reported at 2014-Nov-14 14:16 UTC. Time now 2014-Nov-24 02:43 UTC.
Position N 29°49' E 122°43'.
Warning: this ship's position is 9 days out of date.

Length 332 m; draft 12.8 m.

Type: Ship (hazmat cat A). MMSI: 371752000.

Date/timePositionNaut miles runAvg speedWind from/ knotsBaromVisibWave heightAir tempDewpointWater temp
2014-Nov-14 14:16N 29°49' E 122°43'1911.0
2014-Nov-14 12:31N 29°43' E 122°22'1111.8
2014-Nov-14 11:33N 29°51' E 122°12'9 8.9
2014-Nov-14 10:33N 29°54' E 122°02'0 0.0
2014-Nov-14 09:29N 29°54' E 122°02'0 0.0
2014-Nov-14 08:29N 29°54' E 122°02'0 0.0
2014-Nov-14 06:29N 29°54' E 122°02'0 0.0
2014-Nov-14 04:29N 29°54' E 122°02'0 0.0
2014-Nov-14 03:16N 29°54' E 122°02'0 0.1
2014-Nov-14 02:23N 29°54' E 122°02'0 0.1
2014-Nov-14 01:22N 29°54' E 122°02'0 0.0
2014-Nov-13 23:28N 29°54' E 122°02'0 0.0
2014-Nov-13 22:04N 29°54' E 122°02'0 0.0
2014-Nov-13 21:22N 29°54' E 122°02'0 0.0
2014-Nov-13 20:10N 29°54' E 122°02'0 0.0
2014-Nov-13 19:28N 29°54' E 122°02'0 0.0
2014-Nov-13 17:28N 29°54' E 122°02'2 1.8
2014-Nov-13 16:33N 29°55' E 122°03'1110.8
2014-Nov-13 15:33N 29°49' E 122°14'9 8.6
2014-Nov-13 14:33N 29°45' E 122°22'6 6.1
2014-Nov-13 13:33N 29°46' E 122°29'1 0.1
2014-Nov-13 03:28N 29°47' E 122°28'0 0.1
2014-Nov-13 02:16N 29°47' E 122°28'0 0.0
2014-Nov-12 23:28N 29°47' E 122°29'0 0.0
2014-Nov-12 22:04N 29°47' E 122°29'0 0.0
2014-Nov-12 17:22N 29°47' E 122°29'0 0.1
2014-Nov-12 16:22N 29°47' E 122°28'0 0.0
2014-Nov-12 08:04N 29°47' E 122°29'0 0.0
2014-Nov-12 07:22N 29°47' E 122°29'0 0.0
2014-Nov-12 02:28N 29°47' E 122°28'0 0.0
2014-Nov-12 01:28N 29°47' E 122°28'0 0.1
2014-Nov-12 00:33N 29°47' E 122°28'5 4.9
2014-Nov-11 23:33N 29°46' E 122°34'8 7.5
2014-Nov-11 22:33N 29°47' E 122°43'47 7.4
2014-Nov-11 16:06N 30°30' E 123°06'75 2.1
2014-Nov-10 03:28N 31°16' E 121°55'45910.0
2014-Nov-08 05:28N 24°14' E 118°28'1313.9
2014-Nov-08 04:33N 24°16' E 118°14'1110.7
2014-Nov-08 03:33N 24°24' E 118°06'5 4.2
2014-Nov-08 02:20N 24°26' E 118°02'0 0.0
2014-Nov-08 01:32N 24°26' E 118°02'0 0.0
2014-Nov-08 00:20N 24°26' E 118°02'0 0.0
2014-Nov-07 23:14N 24°26' E 118°02'0 0.0
2014-Nov-07 21:26N 24°26' E 118°02'0 0.0
2014-Nov-07 20:32N 24°26' E 118°02'2 1.7
2014-Nov-07 19:33N 24°26' E 118°03'1010.3
2014-Nov-07 18:33N 24°19' E 118°12'1110.8
2014-Nov-07 17:33N 24°11' E 118°20'1715.6
2014-Nov-07 16:29N 23°60' E 118°33'10116.0
2014-Nov-07 10:10N 22°51' E 119°54'1118.6
2014-Nov-07 09:34N 22°43' E 120°03'1616.0
2014-Nov-07 08:33N 22°33' E 120°17'3 2.7
2014-Nov-07 07:28N 22°33' E 120°20'0 0.0
2014-Nov-07 06:28N 22°33' E 120°20'0 0.0
2014-Nov-07 05:10N 22°33' E 120°20'0 0.0
2014-Nov-07 04:28N 22°33' E 120°20'0 0.0
2014-Nov-07 03:28N 22°33' E 120°20'0 0.0
2014-Nov-07 02:22N 22°33' E 120°20'0 0.0
2014-Nov-07 01:28N 22°33' E 120°20'0 0.0
2014-Nov-07 00:28N 22°33' E 120°20'0 0.0
2014-Nov-06 23:28N 22°33' E 120°20'0 0.0
2014-Nov-06 22:28N 22°33' E 120°20'0 0.0
2014-Nov-06 21:28N 22°33' E 120°20'0 0.0
2014-Nov-06 20:28N 22°33' E 120°20'0 0.0
2014-Nov-06 19:27N 22°33' E 120°20'0 0.0
2014-Nov-06 18:21N 22°33' E 120°20'0 0.0
2014-Nov-06 17:21N 22°33' E 120°20'0 0.0
2014-Nov-06 16:33N 22°33' E 120°20'0 0.0
2014-Nov-06 15:09N 22°33' E 120°20'0 0.0
2014-Nov-06 13:15N 22°33' E 120°20'0 0.0
2014-Nov-06 12:33N 22°33' E 120°20'1 1.3
2014-Nov-06 11:33N 22°33' E 120°18'3 3.4
2014-Nov-06 10:33N 22°32' E 120°15'8 7.5
2014-Nov-06 09:33N 22°25' E 120°11'1 0.5
2014-Nov-06 08:33N 22°25' E 120°11'2 2.4
2014-Nov-06 07:33N 22°23' E 120°12'1 0.7
2014-Nov-06 06:33N 22°23' E 120°11'1 0.6
2014-Nov-06 05:33N 22°24' E 120°11'0 0.2
2014-Nov-06 04:33N 22°24' E 120°11'3 3.1
2014-Nov-06 03:33N 22°21' E 120°12'6 6.3
2014-Nov-06 02:33N 22°15' E 120°14'4 3.6
2014-Nov-06 01:30N 22°12' E 120°16'1 0.8
2014-Nov-06 00:18N 22°13' E 120°16'1 0.9
2014-Nov-05 23:27N 22°12' E 120°17'  
Track history (hours):
 
Tides and Currents Weather Stations Pressure Air Temp Water Temp Dewpoint Dewpoint Depression Visibility Wind Speed Wind Dir Waves Ship Positions

MSC Rania

Last reported at 2014-Nov-14 14:16 UTC. Time now 2014-Nov-24 02:43 UTC.
Position N 29°49' E 122°43'.
Warning: this ship's position is 9 days out of date.

Length 332 m; draft 12.8 m.

Type: Ship (hazmat cat A). MMSI: 371752000.

Date/timePositionNaut miles runAvg speedWind from/ knotsBaromVisibWave heightAir tempDewpointWater temp
2014-Nov-14 14:16N 29°49' E 122°43'1911.0
2014-Nov-14 12:31N 29°43' E 122°22'1111.8
2014-Nov-14 11:33N 29°51' E 122°12'9 8.9
2014-Nov-14 10:33N 29°54' E 122°02'0 0.0
2014-Nov-14 09:29N 29°54' E 122°02'0 0.0
2014-Nov-14 08:29N 29°54' E 122°02'0 0.0
2014-Nov-14 06:29N 29°54' E 122°02'0 0.0
2014-Nov-14 04:29N 29°54' E 122°02'0 0.0
2014-Nov-14 03:16N 29°54' E 122°02'0 0.1
2014-Nov-14 02:23N 29°54' E 122°02'0 0.1
2014-Nov-14 01:22N 29°54' E 122°02'0 0.0
2014-Nov-13 23:28N 29°54' E 122°02'0 0.0
2014-Nov-13 22:04N 29°54' E 122°02'0 0.0
2014-Nov-13 21:22N 29°54' E 122°02'0 0.0
2014-Nov-13 20:10N 29°54' E 122°02'0 0.0
2014-Nov-13 19:28N 29°54' E 122°02'0 0.0
2014-Nov-13 17:28N 29°54' E 122°02'2 1.8
2014-Nov-13 16:33N 29°55' E 122°03'1110.8
2014-Nov-13 15:33N 29°49' E 122°14'9 8.6
2014-Nov-13 14:33N 29°45' E 122°22'6 6.1
2014-Nov-13 13:33N 29°46' E 122°29'1 0.1
2014-Nov-13 03:28N 29°47' E 122°28'0 0.1
2014-Nov-13 02:16N 29°47' E 122°28'0 0.0
2014-Nov-12 23:28N 29°47' E 122°29'0 0.0
2014-Nov-12 22:04N 29°47' E 122°29'0 0.0
2014-Nov-12 17:22N 29°47' E 122°29'0 0.1
2014-Nov-12 16:22N 29°47' E 122°28'0 0.0
2014-Nov-12 08:04N 29°47' E 122°29'0 0.0
2014-Nov-12 07:22N 29°47' E 122°29'0 0.0
2014-Nov-12 02:28N 29°47' E 122°28'0 0.0
2014-Nov-12 01:28N 29°47' E 122°28'0 0.1
2014-Nov-12 00:33N 29°47' E 122°28'5 4.9
2014-Nov-11 23:33N 29°46' E 122°34'8 7.5
2014-Nov-11 22:33N 29°47' E 122°43'47 7.4
2014-Nov-11 16:06N 30°30' E 123°06'75 2.1
2014-Nov-10 03:28N 31°16' E 121°55'45910.0
2014-Nov-08 05:28N 24°14' E 118°28'1313.9
2014-Nov-08 04:33N 24°16' E 118°14'1110.7
2014-Nov-08 03:33N 24°24' E 118°06'5 4.2
2014-Nov-08 02:20N 24°26' E 118°02'0 0.0
2014-Nov-08 01:32N 24°26' E 118°02'0 0.0
2014-Nov-08 00:20N 24°26' E 118°02'0 0.0
2014-Nov-07 23:14N 24°26' E 118°02'0 0.0
2014-Nov-07 21:26N 24°26' E 118°02'0 0.0
2014-Nov-07 20:32N 24°26' E 118°02'2 1.7
2014-Nov-07 19:33N 24°26' E 118°03'1010.3
2014-Nov-07 18:33N 24°19' E 118°12'1110.8
2014-Nov-07 17:33N 24°11' E 118°20'1715.6
2014-Nov-07 16:29N 23°60' E 118°33'10116.0
2014-Nov-07 10:10N 22°51' E 119°54'1118.6
2014-Nov-07 09:34N 22°43' E 120°03'1616.0
2014-Nov-07 08:33N 22°33' E 120°17'3 2.7
2014-Nov-07 07:28N 22°33' E 120°20'0 0.0
2014-Nov-07 06:28N 22°33' E 120°20'0 0.0
2014-Nov-07 05:10N 22°33' E 120°20'0 0.0
2014-Nov-07 04:28N 22°33' E 120°20'0 0.0
2014-Nov-07 03:28N 22°33' E 120°20'0 0.0
2014-Nov-07 02:22N 22°33' E 120°20'0 0.0
2014-Nov-07 01:28N 22°33' E 120°20'0 0.0
2014-Nov-07 00:28N 22°33' E 120°20'0 0.0
2014-Nov-06 23:28N 22°33' E 120°20'0 0.0
2014-Nov-06 22:28N 22°33' E 120°20'0 0.0
2014-Nov-06 21:28N 22°33' E 120°20'0 0.0
2014-Nov-06 20:28N 22°33' E 120°20'0 0.0
2014-Nov-06 19:27N 22°33' E 120°20'0 0.0
2014-Nov-06 18:21N 22°33' E 120°20'0 0.0
2014-Nov-06 17:21N 22°33' E 120°20'0 0.0
2014-Nov-06 16:33N 22°33' E 120°20'0 0.0
2014-Nov-06 15:09N 22°33' E 120°20'0 0.0
2014-Nov-06 13:15N 22°33' E 120°20'0 0.0
2014-Nov-06 12:33N 22°33' E 120°20'1 1.3
2014-Nov-06 11:33N 22°33' E 120°18'3 3.4
2014-Nov-06 10:33N 22°32' E 120°15'8 7.5
2014-Nov-06 09:33N 22°25' E 120°11'1 0.5
2014-Nov-06 08:33N 22°25' E 120°11'2 2.4
2014-Nov-06 07:33N 22°23' E 120°12'1 0.7
2014-Nov-06 06:33N 22°23' E 120°11'1 0.6
2014-Nov-06 05:33N 22°24' E 120°11'0 0.2
2014-Nov-06 04:33N 22°24' E 120°11'3 3.1
2014-Nov-06 03:33N 22°21' E 120°12'6 6.3
2014-Nov-06 02:33N 22°15' E 120°14'4 3.6
2014-Nov-06 01:30N 22°12' E 120°16'1 0.8
2014-Nov-06 00:18N 22°13' E 120°16'1 0.9
2014-Nov-05 23:27N 22°12' E 120°17'  

Dump ship's entire track history